Time;durP1;ratioP1;P1;durP2;ratioP2;P2;SDS_P1;SDS_P2;PMS_P1;PMS_P2;Temp;Humidity;BMP_temperature;BMP_pressure;BME280_temperature;BME280_humidity;BME280_pressure;Samples;Min_cycle;Max_cycle;Signal;HPM_P1;HPM_P2
2022/01/09 00:01:09;;;;;;;2.80;1.02;;;;;;;4.82;82.30;96844.47;5035649;28;20077;-78
2022/01/09 00:03:35;;;;;;;0.98;0.88;;;;;;;4.80;82.44;96857.66;5041452;28;20037;-78
2022/01/09 00:06:00;;;;;;;1.20;1.10;;;;;;;4.76;82.58;96856.22;5039289;28;20083;-78
2022/01/09 00:08:26;;;;;;;1.40;1.05;;;;;;;4.76;83.31;96865.81;5033388;28;20087;-78
2022/01/09 00:10:52;;;;;;;1.52;1.08;;;;;;;4.72;83.51;96865.19;5001602;28;20045;-78
2022/01/09 00:13:17;;;;;;;1.48;1.10;;;;;;;4.71;83.96;96858.31;5051882;28;20041;-78
2022/01/09 00:15:43;;;;;;;4.50;1.73;;;;;;;4.67;84.33;96859.47;5034921;28;20183;-78
2022/01/09 00:18:08;;;;;;;1.08;1.00;;;;;;;4.67;84.19;96857.69;5029167;28;20044;-79
2022/01/09 00:20:34;;;;;;;1.33;1.00;;;;;;;4.68;84.64;96855.94;5016704;28;20040;-78
2022/01/09 00:23:00;;;;;;;3.65;1.20;;;;;;;4.72;84.39;96870.41;5037179;28;20040;-79
2022/01/09 00:25:27;;;;;;;1.55;1.10;;;;;;;4.73;85.05;96872.09;5016911;28;20037;-79
2022/01/09 00:27:53;;;;;;;1.17;1.02;;;;;;;4.75;85.15;96872.81;5018748;28;20037;-79
2022/01/09 00:30:21;;;;;;;1.33;1.20;;;;;;;4.80;85.89;96881.16;5038018;28;20105;-79
2022/01/09 00:32:47;;;;;;;1.75;1.20;;;;;;;4.83;85.64;96874.88;5019556;28;20115;-79
2022/01/09 00:35:13;;;;;;;2.50;1.27;;;;;;;4.84;85.33;96879.97;5042038;28;20029;-78
2022/01/09 00:37:39;;;;;;;2.30;1.65;;;;;;;4.90;85.78;96883.91;5058370;28;20033;-78
2022/01/09 00:40:07;;;;;;;5.60;2.33;;;;;;;4.92;85.91;96885.47;5029321;28;20040;-77
2022/01/09 00:42:33;;;;;;;9.88;3.35;;;;;;;4.96;86.09;96891.28;5034026;28;20045;-78
2022/01/09 00:44:58;;;;;;;5.32;3.00;;;;;;;5.00;85.97;96891.91;5048872;28;20033;-76
2022/01/09 00:47:23;;;;;;;3.78;1.95;;;;;;;5.02;86.27;96898.69;5049495;28;20038;-77
2022/01/09 00:49:50;;;;;;;5.47;1.75;;;;;;;5.03;85.47;96902.94;5050346;28;20029;-77
2022/01/09 00:52:16;;;;;;;5.45;1.55;;;;;;;5.06;85.40;96920.16;5048997;28;20028;-76
2022/01/09 00:54:42;;;;;;;4.95;1.80;;;;;;;5.08;85.33;96911.28;5032895;28;20104;-78
2022/01/09 00:57:07;;;;;;;2.38;1.45;;;;;;;5.09;84.25;96927.78;5050637;28;20029;-77
2022/01/09 00:59:33;;;;;;;2.65;1.60;;;;;;;5.06;84.51;96941.88;5049606;28;20029;-77
2022/01/09 01:01:58;;;;;;;2.78;1.73;;;;;;;5.04;85.15;96940.34;5018425;28;20052;-78
2022/01/09 01:04:24;;;;;;;3.17;1.70;;;;;;;5.02;84.88;96950.91;5051134;28;20133;-76
2022/01/09 01:06:51;;;;;;;3.38;1.35;;;;;;;5.01;84.83;96961.44;5052415;28;20037;-77
2022/01/09 01:09:16;;;;;;;2.80;1.70;;;;;;;5.00;85.36;96965.84;5035157;28;20037;-77
2022/01/09 01:11:42;;;;;;;2.65;1.80;;;;;;;4.99;85.65;96963.31;5048118;28;20128;-77
2022/01/09 01:14:08;;;;;;;2.30;1.52;;;;;;;4.97;86.06;96955.59;5027163;28;20029;-78
2022/01/09 01:16:33;;;;;;;4.43;1.67;;;;;;;4.97;86.14;96975.66;5041337;28;20037;-78
2022/01/09 01:19:00;;;;;;;3.72;1.73;;;;;;;4.91;85.12;96995.22;5043289;28;20097;-79
2022/01/09 01:21:26;;;;;;;3.72;1.88;;;;;;;4.85;85.59;97009.53;5023724;28;20415;-76
2022/01/09 01:23:52;;;;;;;4.65;2.33;;;;;;;4.75;84.14;97018.97;5034570;28;20041;-77
2022/01/09 01:26:17;;;;;;;7.88;2.20;;;;;;;4.67;83.99;97036.91;5017883;28;20025;-78
2022/01/09 01:28:43;;;;;;;2.90;1.83;;;;;;;4.59;84.00;97029.63;5034858;28;20037;-77
2022/01/09 01:31:10;;;;;;;5.85;2.50;;;;;;;4.54;84.86;97056.97;5035345;28;20029;-78
2022/01/09 01:33:35;;;;;;;6.57;2.90;;;;;;;4.51;85.32;97065.84;5034739;28;20571;-78
2022/01/09 01:36:01;;;;;;;13.32;3.80;;;;;;;4.45;84.97;97072.28;5043545;28;20053;-77
2022/01/09 01:38:27;;;;;;;7.00;2.40;;;;;;;4.44;85.14;97094.13;5048040;28;20033;-77
2022/01/09 01:40:53;;;;;;;14.27;3.58;;;;;;;4.40;84.55;97090.03;5026142;28;20097;-79
2022/01/09 01:43:19;;;;;;;4.93;3.33;;;;;;;4.37;84.82;97108.50;5020771;28;20033;-78
2022/01/09 01:45:44;;;;;;;5.55;2.20;;;;;;;4.36;84.57;97101.63;5013717;28;20072;-81
2022/01/09 01:48:10;;;;;;;5.80;2.28;;;;;;;4.35;84.48;97119.97;5013207;28;20037;-79
2022/01/09 01:50:37;;;;;;;9.32;3.28;;;;;;;4.35;84.88;97131.25;5033036;28;20049;-78
2022/01/09 01:53:07;;;;;;;9.90;3.05;;;;;;;4.31;84.53;97140.22;5017160;28;20109;-77
2022/01/09 01:55:37;;;;;;;13.10;3.03;;;;;;;4.31;84.62;97148.06;5063717;28;20055;-76
2022/01/09 01:58:07;;;;;;;10.35;2.97;;;;;;;4.29;84.52;97161.19;5065068;28;20051;-79
2022/01/09 02:00:34;;;;;;;6.10;2.10;;;;;;;4.30;84.05;97173.28;5035086;28;20041;-77
2022/01/09 02:03:00;;;;;;;12.73;3.85;;;;;;;4.25;84.30;97180.56;5040971;28;20028;-77
2022/01/09 02:05:25;;;;;;;10.25;3.58;;;;;;;4.22;84.15;97185.16;5071481;28;20041;-77
2022/01/09 02:07:51;;;;;;;11.48;4.35;;;;;;;4.21;84.68;97191.28;5073036;28;20036;-77
2022/01/09 02:10:17;;;;;;;8.27;2.63;;;;;;;4.19;85.15;97199.25;5075193;28;20048;-76
2022/01/09 02:12:46;;;;;;;10.95;3.95;;;;;;;4.20;85.53;97203.50;5068333;28;20444;-78
2022/01/09 02:15:48;;;;;;;9.32;3.45;;;;;;;4.18;86.08;97209.75;5066907;28;20139;-79
2022/01/09 02:18:19;;;;;;;9.52;4.10;;;;;;;4.16;86.58;97228.13;5062434;28;20040;-78
2022/01/09 02:20:45;;;;;;;6.78;2.65;;;;;;;4.19;86.18;97230.53;5062489;28;20045;-80
2022/01/09 02:23:13;;;;;;;12.20;3.45;;;;;;;4.20;86.40;97241.78;5055323;28;20409;-80
2022/01/09 02:25:39;;;;;;;7.90;2.92;;;;;;;4.20;86.19;97239.19;5062020;28;20047;-82
2022/01/09 02:28:05;;;;;;;8.95;2.92;;;;;;;4.22;85.46;97247.75;5054666;28;20037;-80
2022/01/09 02:30:32;;;;;;;7.13;3.88;;;;;;;4.20;85.87;97249.59;5036235;28;20041;-80
2022/01/09 02:33:03;;;;;;;12.73;3.40;;;;;;;4.19;86.22;97256.59;5038282;28;20497;-80
2022/01/09 02:35:29;;;;;;;9.55;3.40;;;;;;;4.21;85.67;97269.53;5047715;28;20041;-77
2022/01/09 02:37:55;;;;;;;13.48;4.13;;;;;;;4.23;85.50;97270.25;5016992;28;20038;-80
2022/01/09 02:40:22;;;;;;;8.98;3.03;;;;;;;4.23;85.47;97272.88;5033946;28;20112;-80
2022/01/09 02:42:48;;;;;;;12.65;3.55;;;;;;;4.21;85.09;97290.38;5017381;28;20056;-78
2022/01/09 02:45:15;;;;;;;12.95;3.75;;;;;;;4.18;85.04;97286.19;5037271;28;20033;-78
2022/01/09 02:47:42;;;;;;;7.50;3.00;;;;;;;4.15;84.78;97296.84;5036700;28;20045;-77
2022/01/09 02:50:31;;;;;;;9.60;3.33;;;;;;;4.14;84.83;97300.38;5042706;28;20048;-80
2022/01/09 02:53:01;;;;;;;10.63;3.83;;;;;;;4.13;85.37;97303.91;5036621;28;20044;-78
2022/01/09 02:55:28;;;;;;;11.65;3.67;;;;;;;4.15;84.93;97311.66;5015798;28;20049;-78
2022/01/09 02:57:59;;;;;;;20.88;5.13;;;;;;;4.15;85.36;97315.09;5030197;28;20041;-78
2022/01/09 03:00:33;;;;;;;16.55;5.05;;;;;;;4.20;85.92;97320.84;5018350;28;20037;-77
2022/01/09 03:02:59;;;;;;;13.45;4.68;;;;;;;4.23;86.16;97328.50;5031264;28;20102;-77
2022/01/09 03:05:25;;;;;;;14.20;5.55;;;;;;;4.25;86.31;97333.59;5034817;28;20124;-77
2022/01/09 03:07:52;;;;;;;23.13;6.65;;;;;;;4.31;86.58;97341.06;5034542;28;20037;-77
2022/01/09 03:10:19;;;;;;;14.57;5.07;;;;;;;4.35;86.40;97344.28;5034861;28;20042;-77
2022/01/09 03:12:50;;;;;;;15.80;5.38;;;;;;;4.36;86.38;97352.03;5032239;28;20038;-78
2022/01/09 03:15:16;;;;;;;22.75;6.13;;;;;;;4.39;86.41;97354.44;5014498;28;20038;-77
2022/01/09 03:17:43;;;;;;;17.98;5.25;;;;;;;4.43;86.40;97362.88;5013495;28;20044;-77
2022/01/09 03:20:16;;;;;;;31.75;6.78;;;;;;;4.45;86.17;97364.47;5052914;28;20049;-78
2022/01/09 03:22:43;;;;;;;31.45;8.63;;;;;;;4.49;86.04;97371.16;5057441;28;20105;-78
2022/01/09 03:25:09;;;;;;;27.98;7.90;;;;;;;4.52;86.11;97376.19;5058570;28;20032;-78
2022/01/09 03:27:37;;;;;;;25.45;9.82;;;;;;;4.57;85.82;97385.50;5021954;28;20048;-77
2022/01/09 03:30:04;;;;;;;33.72;9.52;;;;;;;4.59;85.30;97387.06;5020703;28;20494;-80
2022/01/09 03:32:30;;;;;;;26.70;7.25;;;;;;;4.63;85.35;97396.41;5020163;28;20063;-78
2022/01/09 03:34:55;;;;;;;25.85;7.35;;;;;;;4.64;84.89;97394.63;5018589;28;20057;-80
2022/01/09 03:37:20;;;;;;;36.40;7.88;;;;;;;4.67;84.94;97402.25;5018029;28;20050;-80
2022/01/09 03:39:46;;;;;;;27.40;7.38;;;;;;;4.71;85.32;97408.94;5017403;28;20049;-80
2022/01/09 03:42:11;;;;;;;29.00;8.70;;;;;;;4.73;84.24;97414.91;5054558;28;20045;-80
2022/01/09 03:44:37;;;;;;;26.45;6.28;;;;;;;4.75;84.09;97415.66;5031126;28;20029;-77
2022/01/09 03:47:02;;;;;;;30.65;8.93;;;;;;;4.75;84.46;97415.66;5046980;28;20029;-77
2022/01/09 03:49:28;;;;;;;23.73;7.75;;;;;;;4.77;83.86;97429.44;5044341;28;20086;-76
2022/01/09 03:51:55;;;;;;;30.85;7.75;;;;;;;4.79;83.36;97430.16;5056173;28;20029;-78
2022/01/09 03:54:22;;;;;;;30.40;6.38;;;;;;;4.79;83.08;97429.34;5060218;28;20039;-77
2022/01/09 03:56:48;;;;;;;34.78;8.25;;;;;;;4.80;83.39;97439.69;5062076;28;20040;-77
2022/01/09 03:59:14;;;;;;;35.85;10.55;;;;;;;4.82;83.11;97448.25;5037510;28;20056;-76
2022/01/09 04:01:40;;;;;;;23.25;7.07;;;;;;;4.85;82.69;97453.28;5047499;28;20025;-78
2022/01/09 04:04:05;;;;;;;37.53;7.25;;;;;;;4.84;82.11;97461.22;5069972;28;20033;-80
2022/01/09 04:06:31;;;;;;;25.58;6.85;;;;;;;4.84;82.00;97472.47;5017157;28;20042;-79
2022/01/09 04:08:58;;;;;;;20.50;5.88;;;;;;;4.87;82.23;97468.84;5030601;28;20137;-79
2022/01/09 04:11:28;;;;;;;17.23;6.78;;;;;;;4.87;81.89;97467.09;5028042;28;20609;-78
2022/01/09 04:13:54;;;;;;;27.85;7.57;;;;;;;4.91;82.04;97472.94;5041447;28;20038;-78
2022/01/09 04:16:20;;;;;;;24.92;5.65;;;;;;;4.93;81.76;97489.34;5040160;28;20057;-79
2022/01/09 04:18:45;;;;;;;23.73;7.38;;;;;;;4.91;81.63;97494.66;5042743;28;20036;-79
2022/01/09 04:21:10;;;;;;;14.45;6.15;;;;;;;4.91;81.26;97493.81;5042041;28;20033;-78
2022/01/09 04:23:36;;;;;;;14.63;6.18;;;;;;;4.92;81.73;97498.97;5059670;28;20037;-78
2022/01/09 04:26:02;;;;;;;22.48;5.88;;;;;;;4.92;81.02;97501.56;5058977;28;20123;-78
2022/01/09 04:28:27;;;;;;;27.48;6.85;;;;;;;4.91;80.36;97515.53;5060521;28;20082;-79
2022/01/09 04:30:52;;;;;;;16.95;5.18;;;;;;;4.91;80.29;97525.16;5048619;28;20029;-78
2022/01/09 04:33:18;;;;;;;26.90;6.93;;;;;;;4.91;80.15;97536.44;5037599;28;20401;-80
2022/01/09 04:35:44;;;;;;;23.77;5.90;;;;;;;4.88;79.92;97541.84;5019044;28;20048;-77
2022/01/09 04:38:09;;;;;;;20.60;6.28;;;;;;;4.88;80.16;97549.69;5058001;28;20057;-79
2022/01/09 04:40:35;;;;;;;20.38;5.65;;;;;;;4.87;79.96;97552.38;5043131;28;20057;-78
2022/01/09 04:43:03;;;;;;;16.38;4.93;;;;;;;4.89;79.16;97558.34;5046926;28;20036;-80
2022/01/09 04:45:29;;;;;;;18.77;5.65;;;;;;;4.92;79.77;97560.75;5052538;28;20093;-80
2022/01/09 04:48:02;;;;;;;16.70;4.45;;;;;;;4.90;79.66;97573.94;5053815;28;20029;-83
2022/01/09 04:50:30;;;;;;;24.55;5.25;;;;;;;4.89;79.53;97572.22;5052224;28;20041;-79
2022/01/09 04:53:00;;;;;;;14.55;5.38;;;;;;;4.90;79.94;97578.31;5054201;28;20029;-80
2022/01/09 04:55:27;;;;;;;19.02;6.13;;;;;;;4.88;79.43;97588.84;5054605;28;20025;-80
2022/01/09 04:57:53;;;;;;;15.77;5.63;;;;;;;4.85;79.77;97593.41;5072217;28;20025;-78
2022/01/09 05:00:19;;;;;;;19.33;5.05;;;;;;;4.87;79.75;97594.16;5067960;28;20490;-78
2022/01/09 05:02:44;;;;;;;18.85;7.35;;;;;;;4.85;78.71;97601.22;5064151;28;20048;-77
2022/01/09 05:05:10;;;;;;;17.27;4.80;;;;;;;4.84;78.32;97608.22;5069318;28;20041;-78
2022/01/09 05:07:36;;;;;;;27.50;5.30;;;;;;;4.86;78.45;97610.75;5069920;28;20051;-79
2022/01/09 05:10:03;;;;;;;28.73;7.95;;;;;;;4.86;78.49;97619.41;5066032;28;20048;-78
2022/01/09 05:12:29;;;;;;;14.63;4.68;;;;;;;4.89;78.90;97624.44;5069064;28;20059;-78
2022/01/09 05:14:54;;;;;;;31.13;7.38;;;;;;;4.86;78.43;97624.63;5069175;28;20033;-78
2022/01/09 05:17:20;;;;;;;27.00;7.00;;;;;;;4.84;78.68;97634.34;5050914;28;20052;-78
2022/01/09 05:19:46;;;;;;;26.65;7.85;;;;;;;4.84;78.43;97631.72;5070010;28;20025;-79
2022/01/09 05:22:12;;;;;;;18.60;5.68;;;;;;;4.86;78.09;97639.47;5062281;28;20036;-79
2022/01/09 05:24:37;;;;;;;17.40;5.97;;;;;;;4.83;78.34;97647.50;5026078;28;20037;-78
2022/01/09 05:27:03;;;;;;;17.65;5.60;;;;;;;4.84;77.72;97643.94;5018391;28;20036;-78
2022/01/09 05:29:29;;;;;;;22.40;5.72;;;;;;;4.82;77.46;97649.25;5045696;28;20428;-79
2022/01/09 05:31:55;;;;;;;17.10;5.25;;;;;;;4.82;77.99;97662.28;5041237;28;20036;-80
2022/01/09 05:34:37;;;;;;;20.40;5.38;;;;;;;4.82;77.60;97659.69;5043201;28;20039;-79
2022/01/09 05:37:04;;;;;;;14.88;5.35;;;;;;;4.81;78.25;97667.63;4990365;28;20040;-79
2022/01/09 05:39:35;;;;;;;17.45;6.55;;;;;;;4.70;79.18;97663.03;5008219;28;20026;-79
2022/01/09 05:42:25;;;;;;;16.20;4.72;;;;;;;4.48;80.52;97677.38;5042004;28;20048;-78
2022/01/09 05:44:54;;;;;;;16.60;4.68;;;;;;;4.37;81.55;97684.97;5048418;28;20037;-80
2022/01/09 05:47:20;;;;;;;18.33;5.65;;;;;;;4.34;82.22;97702.56;5028436;28;20044;-79
2022/01/09 05:49:45;;;;;;;15.30;5.10;;;;;;;4.28;83.03;97708.97;5055379;28;20074;-80
2022/01/09 05:52:11;;;;;;;27.58;5.88;;;;;;;4.24;82.87;97703.09;5053056;28;20044;-79
2022/01/09 05:54:36;;;;;;;16.35;5.65;;;;;;;4.24;82.01;97710.91;5059869;28;20029;-82
2022/01/09 05:57:02;;;;;;;21.70;6.13;;;;;;;4.25;81.76;97714.34;5063625;28;20530;-82
2022/01/09 05:59:27;;;;;;;22.95;5.55;;;;;;;4.26;81.43;97716.88;5050769;28;20089;-81
2022/01/09 06:01:52;;;;;;;30.48;4.78;;;;;;;4.27;81.78;97707.28;5052354;28;20059;-84
2022/01/09 06:04:18;;;;;;;23.70;4.90;;;;;;;4.30;81.53;97722.75;5069934;28;20020;-84
2022/01/09 06:06:43;;;;;;;18.50;4.47;;;;;;;4.36;81.36;97737.25;5067842;28;20059;-82
2022/01/09 06:09:10;;;;;;;18.02;5.43;;;;;;;4.37;81.48;97729.31;5044783;28;20437;-83
2022/01/09 06:11:36;;;;;;;17.40;4.97;;;;;;;4.33;80.60;97729.56;5041353;28;20060;-82
2022/01/09 06:14:01;;;;;;;11.98;4.47;;;;;;;4.34;80.52;97745.13;5049401;28;20040;-82
2022/01/09 06:16:26;;;;;;;18.50;4.55;;;;;;;4.34;79.98;97742.53;5091457;28;20417;-81
2022/01/09 06:18:55;;;;;;;22.02;5.28;;;;;;;4.33;79.47;97747.81;5071122;28;20029;-80
2022/01/09 06:21:20;;;;;;;12.18;3.60;;;;;;;4.35;79.45;97757.25;5037828;28;20047;-78
2022/01/09 06:23:46;;;;;;;17.92;4.65;;;;;;;4.35;79.58;97764.22;5086270;28;20048;-80
2022/01/09 06:26:11;;;;;;;15.63;3.53;;;;;;;4.36;79.35;97769.38;5060899;28;20041;-80
2022/01/09 06:28:36;;;;;;;11.40;4.00;;;;;;;4.35;79.52;97782.50;5078837;28;20041;-80
2022/01/09 06:31:02;;;;;;;29.50;5.03;;;;;;;4.33;79.04;97782.56;5060578;28;20117;-81
2022/01/09 06:33:27;;;;;;;13.70;3.70;;;;;;;4.29;78.92;97786.28;5065978;28;20032;-80
2022/01/09 06:35:52;;;;;;;11.15;4.03;;;;;;;4.27;79.10;97782.94;5070578;28;20032;-78
2022/01/09 06:38:18;;;;;;;13.90;4.47;;;;;;;4.27;79.42;97793.38;5079915;28;20032;-77
2022/01/09 06:40:43;;;;;;;15.60;3.72;;;;;;;4.25;79.09;97795.22;5066989;28;20100;-77
2022/01/09 06:43:08;;;;;;;19.35;5.65;;;;;;;4.25;79.24;97793.44;5082592;28;20032;-77
2022/01/09 06:45:34;;;;;;;10.15;4.95;;;;;;;4.23;79.37;97792.69;5069493;28;20037;-80
2022/01/09 06:47:59;;;;;;;15.10;5.53;;;;;;;4.23;79.62;97810.09;5049095;28;20033;-80
2022/01/09 06:50:26;;;;;;;10.57;3.78;;;;;;;4.19;78.28;97809.44;5062915;28;20501;-78
2022/01/09 06:52:52;;;;;;;15.15;4.53;;;;;;;4.17;78.78;97816.50;5035534;28;20028;-77
2022/01/09 06:55:17;;;;;;;13.27;4.22;;;;;;;4.21;79.16;97818.03;5060253;28;20037;-78
2022/01/09 06:57:43;;;;;;;14.27;4.40;;;;;;;4.19;79.05;97826.84;5062790;28;20052;-78
2022/01/09 07:00:10;;;;;;;14.88;3.58;;;;;;;4.18;79.00;97827.75;5051755;28;20025;-78
2022/01/09 07:02:36;;;;;;;7.88;3.58;;;;;;;4.18;78.90;97832.97;5040700;28;20116;-79
2022/01/09 07:05:02;;;;;;;10.85;4.47;;;;;;;4.15;78.88;97838.38;5057197;28;20079;-80
2022/01/09 07:07:28;;;;;;;7.32;3.60;;;;;;;4.11;79.10;97836.84;5051073;28;20029;-80
2022/01/09 07:09:53;;;;;;;9.60;5.25;;;;;;;4.12;78.89;97843.75;5043980;28;20029;-80
2022/01/09 07:12:21;;;;;;;14.60;4.32;;;;;;;4.12;79.11;97849.81;5041675;28;20037;-79
2022/01/09 07:14:47;;;;;;;10.13;4.55;;;;;;;4.11;78.87;97857.72;5045041;28;20079;-78
2022/01/09 07:17:13;;;;;;;13.73;5.53;;;;;;;4.08;78.58;97858.72;5053585;28;20048;-78
2022/01/09 07:19:44;;;;;;;14.38;4.53;;;;;;;4.11;78.67;97862.91;5055278;28;20091;-80
2022/01/09 07:22:09;;;;;;;11.63;5.70;;;;;;;4.11;78.46;97868.13;5051433;28;20045;-79
2022/01/09 07:24:35;;;;;;;12.18;5.10;;;;;;;4.10;78.47;97877.72;5034564;28;20363;-79
2022/01/09 07:27:00;;;;;;;14.35;4.70;;;;;;;4.09;79.06;97882.09;5056151;28;21219;-78
2022/01/09 07:29:26;;;;;;;11.50;4.13;;;;;;;4.12;79.33;97888.09;5057351;28;20097;-79
2022/01/09 07:31:52;;;;;;;12.93;4.28;;;;;;;4.14;78.91;97888.84;5052792;28;20032;-78
2022/01/09 07:34:21;;;;;;;11.77;4.72;;;;;;;4.09;78.30;97884.72;5038287;28;20025;-80
2022/01/09 07:36:47;;;;;;;10.43;4.15;;;;;;;4.08;78.50;97900.44;5055476;28;20040;-78
2022/01/09 07:39:12;;;;;;;15.68;4.20;;;;;;;4.08;78.65;97898.66;5054825;28;20021;-78
2022/01/09 07:41:39;;;;;;;19.73;4.93;;;;;;;4.08;78.67;97910.88;5053615;28;20394;-80
2022/01/09 07:44:05;;;;;;;17.25;4.38;;;;;;;4.09;79.21;97913.41;5051854;28;20067;-79
2022/01/09 07:46:31;;;;;;;14.45;4.97;;;;;;;4.06;79.15;97916.19;5052000;28;20045;-79
2022/01/09 07:48:56;;;;;;;10.30;4.03;;;;;;;4.11;79.62;97920.28;5055489;28;20040;-78
2022/01/09 07:51:21;;;;;;;23.38;4.53;;;;;;;4.11;79.40;97920.28;5060567;28;20043;-79
2022/01/09 07:53:47;;;;;;;16.48;4.68;;;;;;;4.08;79.35;97929.13;5023907;28;20114;-78
2022/01/09 07:56:13;;;;;;;15.93;4.65;;;;;;;4.06;79.06;97934.44;5039994;28;20051;-77
2022/01/09 07:58:38;;;;;;;20.45;5.82;;;;;;;4.09;78.91;97934.25;5057169;28;20048;-78
2022/01/09 08:01:04;;;;;;;13.73;5.25;;;;;;;4.09;79.27;97933.44;5036086;28;20040;-78
2022/01/09 08:03:29;;;;;;;12.77;5.13;;;;;;;4.10;79.57;97945.53;5053454;28;20037;-77
2022/01/09 08:05:55;;;;;;;12.15;4.63;;;;;;;4.08;79.65;97934.34;5061628;28;20067;-79
2022/01/09 08:08:20;;;;;;;11.55;4.35;;;;;;;4.09;79.52;97943.84;5042784;28;20085;-79
2022/01/09 08:10:45;;;;;;;19.25;5.00;;;;;;;4.07;79.12;97949.13;5060076;28;20060;-80
2022/01/09 08:13:11;;;;;;;18.67;6.18;;;;;;;4.08;78.88;97956.03;5041284;28;20029;-79
2022/01/09 08:15:36;;;;;;;18.90;7.45;;;;;;;4.08;79.21;97945.59;5038860;28;20040;-80
2022/01/09 08:18:02;;;;;;;15.57;6.07;;;;;;;4.11;79.31;97956.78;5042811;28;20051;-79
2022/01/09 08:20:28;;;;;;;17.75;6.75;;;;;;;4.12;78.75;97961.09;5055789;28;20047;-79
2022/01/09 08:22:53;;;;;;;12.45;4.95;;;;;;;4.09;78.93;97965.56;5034635;28;20033;-79
2022/01/09 08:25:19;;;;;;;12.63;4.78;;;;;;;4.09;78.65;97965.56;5052199;28;20174;-78
2022/01/09 08:27:45;;;;;;;20.88;5.00;;;;;;;4.11;78.22;97975.91;5051440;28;20033;-79
2022/01/09 08:30:13;;;;;;;17.60;3.90;;;;;;;4.10;79.00;97979.44;5033122;28;20564;-80
2022/01/09 08:32:39;;;;;;;14.52;4.50;;;;;;;4.07;78.73;97990.84;5049978;28;20084;-79
2022/01/09 08:35:06;;;;;;;15.82;4.13;;;;;;;4.11;79.11;97988.09;5041219;28;20092;-78
2022/01/09 08:37:32;;;;;;;11.93;4.38;;;;;;;4.11;79.13;97988.09;5066435;28;20037;-79
2022/01/09 08:40:01;;;;;;;10.88;4.95;;;;;;;4.14;79.48;97995.78;5024676;28;20076;-78
2022/01/09 08:42:50;;;;;;;16.92;4.03;;;;;;;4.18;78.50;97994.66;5008272;28;20084;-80
2022/01/09 08:45:18;;;;;;;16.92;6.13;;;;;;;4.15;78.56;97998.28;5040785;28;20033;-80
2022/01/09 08:47:46;;;;;;;14.32;4.38;;;;;;;4.16;78.47;98004.34;5005035;28;20041;-81
2022/01/09 08:50:14;;;;;;;12.40;3.70;;;;;;;4.16;78.74;98005.19;5029981;28;20060;-79
2022/01/09 08:52:40;;;;;;;16.35;5.78;;;;;;;4.16;78.48;98007.81;5029740;28;20038;-77
2022/01/09 08:55:06;;;;;;;15.60;5.45;;;;;;;4.19;78.52;98001.59;5051045;28;20051;-81
2022/01/09 08:57:32;;;;;;;17.42;4.60;;;;;;;4.22;78.17;98006.63;5045124;28;20037;-77
2022/01/09 08:59:58;;;;;;;8.55;3.60;;;;;;;4.23;78.16;98003.97;5024774;28;20044;-80
2022/01/09 09:02:23;;;;;;;16.30;5.30;;;;;;;4.26;78.25;98013.38;5043084;28;20593;-80
2022/01/09 09:04:48;;;;;;;8.23;4.05;;;;;;;4.24;78.21;98012.63;5046045;28;20030;-78
2022/01/09 09:07:23;;;;;;;13.38;3.97;;;;;;;4.25;78.37;98022.13;5063077;28;20040;-78
2022/01/09 09:09:49;;;;;;;17.45;4.35;;;;;;;4.23;78.16;98018.75;5048659;28;20108;-78
2022/01/09 09:12:14;;;;;;;12.48;4.90;;;;;;;4.25;78.64;98028.19;5062044;28;20038;-80
2022/01/09 09:14:39;;;;;;;17.58;5.75;;;;;;;4.21;78.40;98020.59;5062996;28;20063;-79
2022/01/09 09:17:05;;;;;;;10.98;4.18;;;;;;;4.21;78.26;98023.19;5050385;28;20045;-79
2022/01/09 09:19:31;;;;;;;8.40;3.83;;;;;;;4.20;77.88;98022.34;5066168;28;20036;-80
2022/01/09 09:21:57;;;;;;;10.43;4.65;;;;;;;4.23;78.44;98035.25;5052896;28;20051;-79
2022/01/09 09:24:22;;;;;;;16.98;5.28;;;;;;;4.24;78.62;98030.88;5074219;28;20113;-78
2022/01/09 09:26:47;;;;;;;12.48;4.30;;;;;;;4.26;77.68;98029.88;5074927;28;20024;-79
2022/01/09 09:29:13;;;;;;;16.15;5.85;;;;;;;4.30;78.76;98038.38;5054356;28;20110;-78
2022/01/09 09:31:38;;;;;;;20.95;4.75;;;;;;;4.34;77.98;98046.91;5061962;28;20051;-81
2022/01/09 09:34:05;;;;;;;17.10;4.40;;;;;;;4.34;77.98;98058.16;5045445;28;20037;-79
2022/01/09 09:36:31;;;;;;;11.45;4.68;;;;;;;4.35;77.78;98056.41;5062382;28;20047;-80
2022/01/09 09:38:56;;;;;;;14.68;6.95;;;;;;;4.33;78.23;98061.69;5063177;28;20339;-81
2022/01/09 09:41:25;;;;;;;16.27;5.80;;;;;;;4.39;77.99;98068.38;5038991;28;20320;-80
2022/01/09 09:43:51;;;;;;;15.50;6.13;;;;;;;4.41;77.51;98075.19;5066931;28;20434;-79
2022/01/09 09:46:19;;;;;;;14.77;5.32;;;;;;;4.49;77.32;98080.00;5063879;28;20113;-79
2022/01/09 09:48:45;;;;;;;12.95;4.57;;;;;;;4.53;76.36;98071.13;5065168;28;20056;-78
2022/01/09 09:51:11;;;;;;;17.15;5.40;;;;;;;4.53;77.10;98076.34;5048026;28;20044;-79
2022/01/09 09:53:36;;;;;;;10.05;3.83;;;;;;;4.56;76.95;98085.75;5063087;28;20037;-80
2022/01/09 09:56:02;;;;;;;8.55;5.20;;;;;;;4.57;76.25;98085.66;5068963;28;20045;-79
2022/01/09 09:58:28;;;;;;;12.70;4.90;;;;;;;4.54;76.78;98085.84;5078771;28;20131;-79
2022/01/09 10:00:55;;;;;;;12.50;4.50;;;;;;;4.52;76.93;98093.72;5081264;28;20033;-78
2022/01/09 10:03:32;;;;;;;18.05;4.93;;;;;;;4.50;76.26;98095.59;5075049;28;20037;-77
2022/01/09 10:05:58;;;;;;;16.70;5.20;;;;;;;4.50;77.08;98094.72;5021004;28;20038;-77
2022/01/09 10:08:37;;;;;;;11.25;4.43;;;;;;;4.49;76.70;98091.28;5043619;28;20113;-78
2022/01/09 10:11:16;;;;;;;15.25;4.50;;;;;;;4.48;76.21;98099.22;5043145;28;20064;-77
2022/01/09 10:13:42;;;;;;;16.38;4.90;;;;;;;4.48;76.10;98099.22;5038294;28;20044;-78
2022/01/09 10:16:08;;;;;;;13.43;4.45;;;;;;;4.48;75.91;98091.38;5038987;28;20033;-77
2022/01/09 10:18:53;;;;;;;18.13;4.93;;;;;;;4.54;76.33;98090.22;5041764;28;20078;-78
2022/01/09 10:21:25;;;;;;;13.90;4.90;;;;;;;4.50;75.82;98093.00;5034934;28;20040;-78
2022/01/09 10:24:08;;;;;;;14.07;4.78;;;;;;;4.52;76.28;98096.34;5046355;28;20041;-79
2022/01/09 10:26:36;;;;;;;19.88;5.22;;;;;;;4.59;75.96;98104.69;5053552;28;20085;-78
2022/01/09 10:29:04;;;;;;;19.05;4.80;;;;;;;4.94;75.28;98109.84;5046446;28;20127;-77
2022/01/09 10:31:29;;;;;;;17.17;6.88;;;;;;;5.14;74.19;98111.38;5047633;28;20056;-77
2022/01/09 10:34:08;;;;;;;11.05;4.68;;;;;;;5.05;74.68;98111.88;5051339;28;20112;-78
2022/01/09 10:36:33;;;;;;;12.50;3.78;;;;;;;5.11;73.56;98124.59;5055607;28;20072;-80
2022/01/09 10:39:04;;;;;;;11.27;4.35;;;;;;;5.04;73.96;98125.84;5061397;28;20029;-80
2022/01/09 10:41:45;;;;;;;15.82;4.85;;;;;;;5.24;73.50;98125.66;5055113;28;20037;-79
2022/01/09 10:44:20;;;;;;;11.18;3.60;;;;;;;5.34;73.75;98139.88;5051132;28;20042;-79
2022/01/09 10:46:57;;;;;;;14.73;4.53;;;;;;;5.55;72.35;98142.25;5029844;28;20447;-69
2022/01/09 10:49:23;;;;;;;10.43;4.25;;;;;;;5.46;72.51;98142.75;5029647;28;20430;-71
2022/01/09 10:51:49;;;;;;;13.40;4.70;;;;;;;5.42;72.70;98142.09;5028955;28;20181;-70
2022/01/09 10:54:30;;;;;;;17.85;5.30;;;;;;;5.29;73.50;98147.13;5033861;28;20506;-69
2022/01/09 10:57:10;;;;;;;15.38;4.07;;;;;;;5.30;73.01;98146.19;5023288;28;20518;-70
2022/01/09 10:59:35;;;;;;;11.27;3.85;;;;;;;5.24;73.73;98146.53;5029496;28;20040;-70
2022/01/09 11:02:01;;;;;;;16.60;5.25;;;;;;;5.37;73.52;98150.16;5028695;28;20037;-70
2022/01/09 11:04:26;;;;;;;16.05;5.38;;;;;;;5.40;72.98;98156.16;5024317;28;20041;-70
2022/01/09 11:06:53;;;;;;;22.80;4.63;;;;;;;5.32;72.63;98144.34;5010190;28;20030;-70
2022/01/09 11:09:20;;;;;;;18.73;7.57;;;;;;;5.29;73.00;98143.66;5033994;28;20041;-71
2022/01/09 11:11:47;;;;;;;15.25;4.88;;;;;;;5.25;72.96;98155.22;5005074;28;20088;-70
2022/01/09 11:14:18;;;;;;;18.35;5.25;;;;;;;5.22;73.05;98155.34;5034488;28;20072;-70
2022/01/09 11:16:51;;;;;;;21.15;5.55;;;;;;;5.21;73.24;98161.53;5021485;28;20040;-69
2022/01/09 11:19:19;;;;;;;16.83;5.03;;;;;;;5.14;73.52;98153.16;5023544;28;20562;-70
2022/01/09 11:21:55;;;;;;;11.27;3.67;;;;;;;5.12;73.75;98161.09;5034838;28;20060;-76
2022/01/09 11:24:29;;;;;;;16.10;5.50;;;;;;;5.20;73.29;98158.06;5022033;28;20085;-78
2022/01/09 11:27:17;;;;;;;20.73;5.45;;;;;;;5.24;73.54;98149.16;5006884;28;20033;-78
2022/01/09 11:29:52;;;;;;;13.57;3.65;;;;;;;5.20;72.98;98158.06;5026570;28;20041;-79
2022/01/09 11:32:38;;;;;;;16.60;4.30;;;;;;;5.17;73.27;98163.47;5026537;28;20486;-78
2022/01/09 11:35:14;;;;;;;12.77;4.18;;;;;;;5.21;73.26;98159.75;5055257;28;20024;-79